Terminal Aerodrome Forecast
Issued by NWS

Home | Current Version | Previous Version | Text Only | Print | Product List | Glossary On
Versions: 1 2 3 4 5 6 7 8 9 10 11 12 13 14 15 16 17 18 19 20 21
123
FTUS46 KMTR 221700
TAFSTS
TAF
KSTS 221720Z 2218/2318 22004KT P6SM SCT024 BKN050
     FM222100 19010KT P6SM SCT030 SCT200
     FM230400 17005KT P6SM BKN025 BKN250
     FM230800 VRB03KT P6SM OVC015=

USA.gov is the U.S. government's official web portal to all federal, state and local government web resources and services.